createdAt,value
2023-03-01T00:01:42.600Z,-2.80
2023-03-01T00:04:09.509Z,-2.70
2023-03-01T00:06:36.591Z,-2.60
2023-03-01T00:09:03.909Z,-2.60
2023-03-01T00:11:34.170Z,-2.60
2023-03-01T00:14:03.107Z,-2.60
2023-03-01T00:16:35.496Z,-2.60
2023-03-01T00:19:03.199Z,-2.60
2023-03-01T00:21:30.830Z,-2.60
2023-03-01T00:23:58.807Z,-2.50
2023-03-01T00:26:29.073Z,-2.50
2023-03-01T00:28:58.826Z,-2.50
2023-03-01T00:31:31.862Z,-2.50
2023-03-01T00:34:04.099Z,-2.40
2023-03-01T00:36:36.564Z,-2.30
2023-03-01T00:39:10.519Z,-2.20
2023-03-01T00:41:37.399Z,-2.10
2023-03-01T00:44:04.645Z,-2.10
2023-03-01T00:46:32.003Z,-2.10
2023-03-01T00:48:59.276Z,-2.00
2023-03-01T00:51:29.430Z,-2.00
2023-03-01T00:54:01.404Z,-2.00
2023-03-01T00:56:29.675Z,-2.00
2023-03-01T00:58:57.342Z,-2.00
2023-03-01T01:01:32.883Z,-2.10
2023-03-01T01:04:12.486Z,-2.10
2023-03-01T01:06:47.262Z,-2.00
2023-03-01T01:09:18.525Z,-2.00
2023-03-01T01:11:51.265Z,-1.90
2023-03-01T01:14:19.848Z,-2.00
2023-03-01T01:16:47.483Z,-2.10
2023-03-01T01:19:15.401Z,-2.10
2023-03-01T01:21:45.833Z,-2.20
2023-03-01T01:24:13.317Z,-2.30
2023-03-01T01:26:40.655Z,-2.40
2023-03-01T01:29:08.759Z,-2.40
2023-03-01T01:31:39.121Z,-2.50
2023-03-01T01:34:13.328Z,-2.50
2023-03-01T01:36:40.288Z,-2.50
2023-03-01T01:39:08.093Z,-2.60
2023-03-01T01:41:34.961Z,-2.50
2023-03-01T01:44:28.709Z,-2.60
2023-03-01T01:47:22.840Z,-2.70
2023-03-01T01:49:57.568Z,-2.80
2023-03-01T01:52:38.983Z,-2.90
2023-03-01T01:55:26.358Z,-2.80
2023-03-01T01:58:00.819Z,-2.80
2023-03-01T02:00:31.080Z,-2.80
2023-03-01T02:03:20.687Z,-2.80
2023-03-01T02:06:14.340Z,-2.70
2023-03-01T02:08:46.441Z,-2.70
2023-03-01T02:11:15.589Z,-2.70
2023-03-01T02:13:43.999Z,-2.80
2023-03-01T02:16:16.563Z,-2.80
2023-03-01T02:18:45.735Z,-2.70
2023-03-01T02:21:59.732Z,-2.70
2023-03-01T02:25:05.176Z,-2.70
2023-03-01T02:27:50.348Z,-2.70
2023-03-01T02:30:19.670Z,-2.80
2023-03-01T02:32:48.826Z,-2.80
2023-03-01T02:35:20.261Z,-2.70
2023-03-01T02:37:49.265Z,-2.70
2023-03-01T02:40:19.702Z,-2.70
2023-03-01T02:42:59.430Z,-2.80
2023-03-01T02:45:28.127Z,-2.80
2023-03-01T02:47:57.611Z,-2.80
2023-03-01T02:50:30.509Z,-2.80
2023-03-01T02:53:26.433Z,-2.80
2023-03-01T02:55:53.625Z,-2.80
2023-03-01T02:58:20.906Z,-2.90
2023-03-01T03:00:50.232Z,-3.00
2023-03-01T03:03:21.697Z,-3.00
2023-03-01T03:05:49.277Z,-3.00
2023-03-01T03:08:24.678Z,-3.10
2023-03-01T03:10:51.843Z,-3.20
2023-03-01T03:13:19.947Z,-3.20
2023-03-01T03:15:46.875Z,-3.20
2023-03-01T03:18:18.478Z,-3.10
2023-03-01T03:20:46.812Z,-3.20
2023-03-01T03:23:14.581Z,-3.20
2023-03-01T03:25:41.438Z,-3.40
2023-03-01T03:28:11.666Z,-3.40
2023-03-01T03:30:42.012Z,-3.30
2023-03-01T03:33:13.579Z,-3.30
2023-03-01T03:35:49.103Z,-3.50
2023-03-01T03:38:22.697Z,-3.60
2023-03-01T03:41:04.774Z,-3.80
2023-03-01T03:43:36.071Z,-3.80
2023-03-01T03:46:06.622Z,-3.80
2023-03-01T03:48:44.727Z,-3.80
2023-03-01T03:51:16.379Z,-3.90
2023-03-01T03:53:45.332Z,-4.10
2023-03-01T03:56:13.075Z,-4.10
2023-03-01T03:58:40.062Z,-4.10
2023-03-01T04:01:07.180Z,-4.20
2023-03-01T04:03:35.971Z,-4.20
2023-03-01T04:06:05.032Z,-4.20
2023-03-01T04:08:32.774Z,-4.30
2023-03-01T04:11:24.439Z,-4.30
2023-03-01T04:13:55.706Z,-4.30
2023-03-01T04:16:24.409Z,-4.30
2023-03-01T04:18:51.715Z,-4.30
2023-03-01T04:21:18.671Z,-4.30
2023-03-01T04:23:45.553Z,-4.40
2023-03-01T04:26:12.723Z,-4.40
2023-03-01T04:28:46.697Z,-4.50
2023-03-01T04:31:19.380Z,-4.50
2023-03-01T04:33:56.771Z,-4.60
2023-03-01T04:36:29.187Z,-4.40
2023-03-01T04:38:57.361Z,-4.40
2023-03-01T04:41:26.385Z,-4.30
2023-03-01T04:43:53.508Z,-4.40
2023-03-01T04:46:22.482Z,-4.40
2023-03-01T04:48:50.068Z,-4.30
2023-03-01T04:51:17.614Z,-4.20
2023-03-01T04:53:45.389Z,-4.20
2023-03-01T04:56:14.909Z,-4.10
2023-03-01T04:58:42.650Z,-4.00
2023-03-01T05:01:16.959Z,-4.00
2023-03-01T05:03:50.891Z,-3.90
2023-03-01T05:06:21.164Z,-3.90
2023-03-01T05:08:48.448Z,-3.80
2023-03-01T05:11:15.434Z,-3.80
2023-03-01T05:13:43.047Z,-3.80
2023-03-01T05:16:12.310Z,-3.70
2023-03-01T05:18:41.869Z,-3.60
2023-03-01T05:21:18.353Z,-3.60
2023-03-01T05:23:47.664Z,-3.50
2023-03-01T05:26:33.222Z,-3.30
2023-03-01T05:29:00.997Z,-3.20
2023-03-01T05:31:28.646Z,-3.30
2023-03-01T05:33:55.662Z,-3.20
2023-03-01T05:36:22.517Z,-3.20
2023-03-01T05:38:49.405Z,-3.10
2023-03-01T05:41:17.828Z,-3.10
2023-03-01T05:43:45.813Z,-3.10
2023-03-01T05:46:14.175Z,-2.90
2023-03-01T05:48:41.326Z,-3.00
2023-03-01T05:51:08.319Z,-3.00
2023-03-01T05:53:35.200Z,-3.00
2023-03-01T05:56:05.594Z,-3.00
2023-03-01T05:58:32.969Z,-3.00
2023-03-01T06:00:59.915Z,-3.00
2023-03-01T06:03:26.801Z,-3.00
2023-03-01T06:05:59.001Z,-3.00
2023-03-01T06:08:28.005Z,-3.10
2023-03-01T06:10:54.910Z,-3.10
2023-03-01T06:13:23.870Z,-3.10
2023-03-01T06:15:50.996Z,-3.00
2023-03-01T06:18:17.862Z,-3.00
2023-03-01T06:20:44.749Z,-3.00
2023-03-01T06:23:11.633Z,-3.00
2023-03-01T06:25:38.616Z,-3.00
2023-03-01T06:28:05.547Z,-3.00
2023-03-01T06:30:32.964Z,-2.90
2023-03-01T06:33:02.050Z,-2.90
2023-03-01T06:35:31.893Z,-2.80
2023-03-01T06:38:02.602Z,-2.80
2023-03-01T06:40:32.074Z,-2.70
2023-03-01T06:43:00.094Z,-2.70
2023-03-01T06:45:27.000Z,-2.70
2023-03-01T06:48:01.826Z,-2.60
2023-03-01T06:50:28.713Z,-2.50
2023-03-01T06:52:59.162Z,-2.40
2023-03-01T06:55:26.138Z,-2.40
2023-03-01T06:58:02.314Z,-2.30
2023-03-01T07:00:30.818Z,-2.30
2023-03-01T07:03:02.855Z,-2.20
2023-03-01T07:05:31.524Z,-2.00
2023-03-01T07:07:58.571Z,-1.50
2023-03-01T07:10:25.770Z,-1.10
2023-03-01T07:12:59.515Z,-0.60
2023-03-01T07:15:29.586Z,-0.20
2023-03-01T07:17:57.827Z,0.10
2023-03-01T07:20:26.103Z,0.50
2023-03-01T07:22:59.249Z,0.80
2023-03-01T07:25:26.308Z,0.90
2023-03-01T07:27:55.175Z,1.20
2023-03-01T07:30:23.008Z,1.50
2023-03-01T07:32:50.158Z,2.00
2023-03-01T07:35:17.116Z,2.10
2023-03-01T07:37:44.766Z,2.20
2023-03-01T07:40:13.233Z,2.50
2023-03-01T07:42:40.076Z,2.60
2023-03-01T07:45:08.536Z,2.80
2023-03-01T07:47:36.809Z,2.70
2023-03-01T07:50:05.056Z,2.90
2023-03-01T07:52:32.006Z,3.00
2023-03-01T07:54:58.994Z,3.20
2023-03-01T07:57:26.159Z,3.30
2023-03-01T07:59:53.009Z,3.40
2023-03-01T08:02:19.851Z,3.60
2023-03-01T08:04:46.772Z,3.40
2023-03-01T08:07:13.614Z,3.60
2023-03-01T08:09:40.638Z,4.00
2023-03-01T08:12:07.711Z,4.10
2023-03-01T08:14:34.612Z,4.00
2023-03-01T08:17:03.749Z,4.20
2023-03-01T08:19:31.197Z,4.40
2023-03-01T08:21:59.070Z,4.60
2023-03-01T08:24:26.248Z,4.70
2023-03-01T08:26:53.153Z,4.90
2023-03-01T08:29:20.071Z,5.00
2023-03-01T08:31:48.235Z,5.30
2023-03-01T08:34:18.623Z,5.50
2023-03-01T08:36:47.588Z,5.50
2023-03-01T08:39:19.198Z,5.60
2023-03-01T08:41:48.261Z,6.10
2023-03-01T08:44:21.650Z,5.70
2023-03-01T08:46:50.814Z,5.60
2023-03-01T08:49:20.523Z,5.90
2023-03-01T08:51:48.809Z,6.30
2023-03-01T08:54:21.622Z,6.80
2023-03-01T08:56:50.081Z,7.10
2023-03-01T08:59:19.226Z,6.90
2023-03-01T09:03:38.031Z,7.50
2023-03-01T09:06:08.296Z,7.80
2023-03-01T09:08:42.252Z,8.30
2023-03-01T09:11:14.626Z,8.10
2023-03-01T09:13:44.207Z,8.10
2023-03-01T09:16:15.143Z,8.70
2023-03-01T09:18:42.355Z,8.40
2023-03-01T09:21:15.368Z,8.80
2023-03-01T09:23:47.042Z,8.50
2023-03-01T09:26:24.788Z,8.90
2023-03-01T09:28:56.942Z,10.10
2023-03-01T09:31:26.021Z,10.50
2023-03-01T09:33:55.789Z,10.70
2023-03-01T09:36:26.455Z,11.20
2023-03-01T09:38:54.162Z,10.50
2023-03-01T09:41:48.675Z,9.60
2023-03-01T09:44:46.850Z,10.20
2023-03-01T09:47:24.774Z,10.20
2023-03-01T09:50:21.537Z,9.80
2023-03-01T09:53:00.106Z,10.30
2023-03-01T09:55:43.793Z,10.50
2023-03-01T09:59:16.206Z,10.80
2023-03-01T10:02:12.206Z,12.30
2023-03-01T10:05:08.161Z,12.80
2023-03-01T10:08:14.856Z,12.60
2023-03-01T10:10:49.171Z,11.70
2023-03-01T10:13:43.883Z,10.60
2023-03-01T10:16:23.755Z,10.30
2023-03-01T10:19:02.380Z,11.00
2023-03-01T10:21:32.462Z,11.90
2023-03-01T10:24:15.856Z,11.70
2023-03-01T10:27:15.970Z,12.10
2023-03-01T10:30:12.187Z,13.10
2023-03-01T10:32:39.889Z,14.10
2023-03-01T10:35:29.497Z,15.60
2023-03-01T10:38:14.407Z,16.90
2023-03-01T10:41:06.411Z,17.70
2023-03-01T10:44:36.518Z,18.20
2023-03-01T10:47:03.775Z,17.80
2023-03-01T10:49:30.916Z,16.40
2023-03-01T10:52:19.865Z,17.50
2023-03-01T10:55:02.075Z,18.10
2023-03-01T10:57:42.789Z,18.50
2023-03-01T11:00:26.262Z,18.40
2023-03-01T11:02:59.127Z,18.20
2023-03-01T11:05:29.358Z,18.70
2023-03-01T11:08:00.166Z,17.40
2023-03-01T11:10:31.488Z,17.40
2023-03-01T11:13:20.359Z,17.80
2023-03-01T11:16:10.937Z,19.50
2023-03-01T11:18:47.743Z,21.30
2023-03-01T11:21:17.443Z,21.40
2023-03-01T11:23:47.852Z,21.50
2023-03-01T11:26:18.305Z,22.30
2023-03-01T11:28:56.452Z,22.10
2023-03-01T11:31:27.670Z,20.60
2023-03-01T11:34:18.704Z,20.10
2023-03-01T11:37:02.608Z,19.60
2023-03-01T11:40:05.841Z,18.30
2023-03-01T11:43:03.093Z,18.30
2023-03-01T11:46:30.680Z,18.90
2023-03-01T11:49:33.198Z,20.50
2023-03-01T11:52:42.988Z,19.60
2023-03-01T11:56:03.767Z,20.20
2023-03-01T11:59:03.655Z,20.60
2023-03-01T12:02:05.947Z,20.00
2023-03-01T12:05:06.731Z,19.40
2023-03-01T12:08:12.438Z,19.30
2023-03-01T12:11:28.884Z,20.00
2023-03-01T12:14:26.808Z,20.80
2023-03-01T12:17:37.038Z,20.80
2023-03-01T12:20:21.536Z,20.70
2023-03-01T12:23:24.535Z,19.50
2023-03-01T12:26:07.675Z,19.70
2023-03-01T12:29:17.379Z,20.50
2023-03-01T12:32:22.724Z,20.40
2023-03-01T12:35:46.272Z,20.80
2023-03-01T12:39:19.982Z,21.60
2023-03-01T12:42:14.422Z,21.60
2023-03-01T12:45:18.295Z,21.30
2023-03-01T12:48:40.044Z,21.20
2023-03-01T12:51:23.449Z,21.20
2023-03-01T12:53:55.664Z,21.60
2023-03-01T12:56:38.783Z,21.60
2023-03-01T12:59:50.043Z,20.90
2023-03-01T13:02:41.944Z,20.70
2023-03-01T13:06:01.564Z,21.40
2023-03-01T13:09:03.563Z,21.40
2023-03-01T13:11:30.856Z,19.70
2023-03-01T13:14:25.535Z,19.30
2023-03-01T13:16:56.445Z,20.30
2023-03-01T13:19:37.079Z,21.20
2023-03-01T13:22:32.685Z,20.70
2023-03-01T13:25:19.350Z,20.60
2023-03-01T13:27:48.085Z,20.30
2023-03-01T13:30:42.220Z,20.00
2023-03-01T13:33:24.420Z,20.00
2023-03-01T13:35:51.327Z,19.80
2023-03-01T13:38:59.080Z,19.70
2023-03-01T13:41:58.714Z,20.00
2023-03-01T13:44:33.623Z,19.80
2023-03-01T13:47:08.484Z,20.10
2023-03-01T13:49:58.510Z,20.60
2023-03-01T13:53:03.163Z,20.40
2023-03-01T13:55:56.637Z,18.90
2023-03-01T13:58:47.221Z,18.60
2023-03-01T14:01:37.140Z,18.20
2023-03-01T14:04:24.048Z,18.20
2023-03-01T14:06:51.125Z,18.30
2023-03-01T14:09:29.328Z,18.00
2023-03-01T14:12:22.231Z,17.80
2023-03-01T14:15:02.890Z,18.00
2023-03-01T14:17:50.870Z,17.20
2023-03-01T14:20:33.183Z,17.00
2023-03-01T14:23:12.588Z,18.00
2023-03-01T14:25:50.832Z,18.00
2023-03-01T14:28:27.206Z,16.90
2023-03-01T14:31:00.380Z,16.60
2023-03-01T14:33:35.366Z,16.80
2023-03-01T14:36:11.075Z,16.40
2023-03-01T14:38:48.139Z,15.80
2023-03-01T14:41:25.357Z,16.10
2023-03-01T14:44:01.871Z,15.70
2023-03-01T14:46:45.138Z,15.40
2023-03-01T14:49:26.611Z,15.80
2023-03-01T14:52:05.044Z,15.80
2023-03-01T14:54:46.920Z,15.20
2023-03-01T14:57:26.616Z,14.80
2023-03-01T15:00:01.209Z,15.20
2023-03-01T15:02:31.199Z,15.60
2023-03-01T15:05:08.975Z,13.50
2023-03-01T15:07:43.343Z,13.20
2023-03-01T15:10:27.993Z,13.40
2023-03-01T15:12:55.858Z,12.80
2023-03-01T15:15:47.411Z,11.80
2023-03-01T15:18:26.765Z,11.70
2023-03-01T15:20:54.951Z,11.30
2023-03-01T15:23:28.971Z,10.80
2023-03-01T15:25:58.223Z,11.00
2023-03-01T15:28:43.725Z,11.00
2023-03-01T15:31:35.969Z,10.90
2023-03-01T15:34:37.641Z,10.90
2023-03-01T15:37:46.117Z,10.50
2023-03-01T15:40:21.463Z,10.20
2023-03-01T15:42:48.421Z,9.80
2023-03-01T15:45:18.008Z,9.70
2023-03-01T15:47:53.760Z,9.80
2023-03-01T15:50:34.954Z,9.50
2023-03-01T15:53:09.049Z,9.60
2023-03-01T15:55:35.971Z,9.70
2023-03-01T15:58:15.336Z,9.60
2023-03-01T16:00:58.154Z,9.30
2023-03-01T16:03:27.405Z,9.20
2023-03-01T16:05:54.564Z,9.70
2023-03-01T16:08:21.574Z,9.30
2023-03-01T16:10:50.777Z,9.10
2023-03-01T16:13:18.561Z,8.90
2023-03-01T16:15:46.142Z,8.70
2023-03-01T16:18:13.251Z,8.50
2023-03-01T16:20:40.959Z,8.10
2023-03-01T16:23:11.848Z,7.70
2023-03-01T16:25:38.953Z,7.30
2023-03-01T16:28:10.140Z,7.20
2023-03-01T16:30:40.302Z,6.80
2023-03-01T16:33:24.383Z,6.50
2023-03-01T16:35:56.234Z,6.30
2023-03-01T16:38:23.274Z,6.10
2023-03-01T16:40:52.533Z,5.80
2023-03-01T16:43:19.742Z,5.50
2023-03-01T16:45:47.344Z,5.10
2023-03-01T16:48:15.331Z,4.80
2023-03-01T16:50:42.401Z,4.50
2023-03-01T16:53:09.565Z,4.30
2023-03-01T16:55:36.736Z,4.10
2023-03-01T16:58:05.010Z,4.00
2023-03-01T17:00:31.990Z,3.90
2023-03-01T17:02:59.132Z,3.70
2023-03-01T17:05:26.762Z,3.50
2023-03-01T17:07:56.423Z,3.40
2023-03-01T17:10:23.352Z,3.30
2023-03-01T17:12:51.279Z,3.20
2023-03-01T17:15:18.264Z,3.20
2023-03-01T17:17:45.238Z,3.10
2023-03-01T17:20:13.085Z,3.10
2023-03-01T17:22:39.996Z,3.10
2023-03-01T17:25:10.956Z,3.10
2023-03-01T17:27:39.612Z,3.00
2023-03-01T17:30:13.771Z,2.90
2023-03-01T17:32:42.204Z,2.80
2023-03-01T17:35:11.856Z,2.80
2023-03-01T17:37:40.285Z,2.80
2023-03-01T17:40:08.495Z,2.70
2023-03-01T17:42:35.499Z,2.70
2023-03-01T17:45:02.380Z,2.80
2023-03-01T17:47:29.312Z,2.70
2023-03-01T17:49:56.236Z,2.60
2023-03-01T17:52:23.692Z,2.50
2023-03-01T17:54:51.476Z,2.50
2023-03-01T17:57:18.480Z,2.50
2023-03-01T17:59:45.338Z,2.40
2023-03-01T18:02:15.339Z,2.30
2023-03-01T18:04:42.256Z,2.20
2023-03-01T18:07:09.131Z,2.30
2023-03-01T18:09:36.022Z,2.30
2023-03-01T18:12:02.933Z,2.20
2023-03-01T18:14:33.769Z,2.20
2023-03-01T18:17:06.542Z,2.20
2023-03-01T18:19:33.590Z,2.10
2023-03-01T18:22:00.498Z,2.10
2023-03-01T18:24:27.416Z,2.10
2023-03-01T18:26:54.360Z,2.00
2023-03-01T18:29:21.244Z,1.90
2023-03-01T18:31:48.370Z,1.80
2023-03-01T18:34:15.528Z,1.70
2023-03-01T18:36:47.901Z,1.80
2023-03-01T18:39:24.752Z,1.70
2023-03-01T18:41:51.852Z,1.70
2023-03-01T18:44:18.841Z,1.80
2023-03-01T18:46:48.917Z,1.80
2023-03-01T18:49:16.268Z,1.70
2023-03-01T18:51:43.793Z,1.70
2023-03-01T18:54:12.800Z,1.70
2023-03-01T18:56:40.171Z,1.70
2023-03-01T18:59:07.486Z,1.80
2023-03-01T19:01:37.298Z,1.70
2023-03-01T19:04:05.207Z,1.60
2023-03-01T19:06:35.220Z,1.50
2023-03-01T19:09:03.148Z,1.50
2023-03-01T19:11:33.091Z,1.60
2023-03-01T19:14:02.420Z,1.60
2023-03-01T19:16:34.607Z,1.50
2023-03-01T19:19:08.226Z,1.60
2023-03-01T19:21:35.663Z,1.60
2023-03-01T19:24:02.799Z,1.60
2023-03-01T19:26:31.690Z,1.60
2023-03-01T19:28:59.431Z,1.60
2023-03-01T19:31:30.867Z,1.50
2023-03-01T19:34:11.579Z,1.40
2023-03-01T19:36:43.961Z,1.30
2023-03-01T19:39:13.917Z,1.40
2023-03-01T19:41:42.357Z,1.40
2023-03-01T19:44:10.025Z,1.30
2023-03-01T19:46:37.540Z,1.30
2023-03-01T19:49:05.037Z,1.30
2023-03-01T19:51:38.805Z,1.30
2023-03-01T19:54:07.046Z,1.40
2023-03-01T19:56:35.645Z,1.40
2023-03-01T19:59:04.379Z,1.40
2023-03-01T20:01:34.056Z,1.40
2023-03-01T20:04:03.434Z,1.40
2023-03-01T20:06:31.190Z,1.40
2023-03-01T20:09:00.665Z,1.40
2023-03-01T20:11:29.195Z,1.50
2023-03-01T20:13:56.500Z,1.50
2023-03-01T20:16:24.321Z,1.50
2023-03-01T20:18:51.183Z,1.60
2023-03-01T20:21:24.860Z,1.60
2023-03-01T20:23:53.617Z,1.70
2023-03-01T20:26:22.957Z,1.60
2023-03-01T20:28:54.896Z,1.50
2023-03-01T20:31:29.075Z,1.40
2023-03-01T20:33:59.452Z,1.40
2023-03-01T20:36:28.239Z,1.50
2023-03-01T20:38:56.344Z,1.70
2023-03-01T20:41:26.865Z,1.60
2023-03-01T20:43:56.309Z,1.60
2023-03-01T20:46:26.583Z,1.60
2023-03-01T20:48:54.237Z,1.70
2023-03-01T20:51:22.285Z,1.60
2023-03-01T20:53:49.586Z,1.60
2023-03-01T20:56:19.709Z,1.60
2023-03-01T20:58:47.103Z,1.60
2023-03-01T21:01:21.039Z,1.70
2023-03-01T21:03:48.298Z,1.70
2023-03-01T21:06:15.265Z,1.70
2023-03-01T21:08:42.291Z,1.70
2023-03-01T21:11:10.086Z,1.70
2023-03-01T21:13:36.991Z,1.60
2023-03-01T21:16:14.038Z,1.60
2023-03-01T21:18:42.529Z,1.50
2023-03-01T21:21:14.123Z,1.50
2023-03-01T21:23:44.201Z,1.40
2023-03-01T21:26:23.808Z,1.40
2023-03-01T21:28:58.147Z,1.30
2023-03-01T21:31:34.656Z,1.30
2023-03-01T21:34:06.705Z,1.30
2023-03-01T21:36:35.938Z,1.40
2023-03-01T21:39:06.139Z,1.40
2023-03-01T21:41:37.358Z,1.40
2023-03-01T21:44:07.107Z,1.40
2023-03-01T21:46:39.049Z,1.30
2023-03-01T21:49:09.981Z,1.20
2023-03-01T21:51:37.383Z,1.20
2023-03-01T21:54:05.547Z,1.20
2023-03-01T21:56:38.595Z,1.20
2023-03-01T21:59:09.306Z,1.20
2023-03-01T22:01:36.409Z,1.20
2023-03-01T22:04:03.575Z,1.30
2023-03-01T22:06:45.206Z,1.20
2023-03-01T22:09:21.601Z,1.20
2023-03-01T22:12:01.898Z,1.30
2023-03-01T22:14:32.619Z,1.20
2023-03-01T22:16:59.667Z,1.20
2023-03-01T22:19:28.527Z,1.10
2023-03-01T22:21:55.422Z,1.10
2023-03-01T22:24:25.364Z,1.10
2023-03-01T22:26:54.895Z,1.10
2023-03-01T22:29:29.268Z,1.10
2023-03-01T22:31:57.959Z,1.10
2023-03-01T22:34:26.238Z,1.10
2023-03-01T22:36:53.266Z,1.00
2023-03-01T22:39:21.487Z,0.90
2023-03-01T22:41:50.142Z,1.00
2023-03-01T22:44:23.390Z,1.00
2023-03-01T22:46:52.159Z,1.00
2023-03-01T22:49:21.226Z,0.90
2023-03-01T22:51:49.071Z,0.80
2023-03-01T22:54:19.308Z,0.80
2023-03-01T22:56:47.045Z,0.80
2023-03-01T22:59:18.953Z,0.80
2023-03-01T23:01:47.926Z,0.80
2023-03-01T23:04:17.396Z,0.80
2023-03-01T23:06:53.549Z,0.80
2023-03-01T23:09:34.279Z,0.80
2023-03-01T23:12:07.312Z,0.90
2023-03-01T23:14:35.132Z,0.90
2023-03-01T23:17:03.538Z,0.90
2023-03-01T23:19:30.983Z,0.80
2023-03-01T23:21:58.044Z,0.70
2023-03-01T23:24:31.132Z,0.60
2023-03-01T23:27:02.047Z,0.50
2023-03-01T23:29:29.562Z,0.50
2023-03-01T23:31:57.928Z,0.50
2023-03-01T23:34:27.358Z,0.50
2023-03-01T23:36:55.705Z,0.50
2023-03-01T23:39:22.883Z,0.50
2023-03-01T23:41:50.242Z,0.60
2023-03-01T23:44:20.846Z,0.60
2023-03-01T23:46:50.110Z,0.60
2023-03-01T23:49:21.909Z,0.70
2023-03-01T23:51:49.684Z,0.80
2023-03-01T23:54:21.890Z,0.80
2023-03-01T23:56:48.874Z,0.70
2023-03-01T23:59:22.017Z,0.70
